createdAt,value
2023-05-05T00:00:30.552Z,46.49
2023-05-05T00:01:34.438Z,47.18
2023-05-05T00:02:38.235Z,46.66
2023-05-05T00:03:42.189Z,46.69
2023-05-05T00:04:45.832Z,46.98
2023-05-05T00:05:50.227Z,46.80
2023-05-05T00:06:53.898Z,46.45
2023-05-05T00:07:57.545Z,46.33
2023-05-05T00:09:02.804Z,46.61
2023-05-05T00:10:07.298Z,46.65
2023-05-05T00:11:11.093Z,46.47
2023-05-05T00:12:14.821Z,46.14
2023-05-05T00:13:18.979Z,46.75
2023-05-05T00:14:22.698Z,46.39
2023-05-05T00:15:26.345Z,46.10
2023-05-05T00:16:30.103Z,46.27
2023-05-05T00:17:33.760Z,45.85
2023-05-05T00:18:37.409Z,46.21
2023-05-05T00:19:41.489Z,45.96
2023-05-05T00:20:45.513Z,45.65
2023-05-05T00:21:49.186Z,45.48
2023-05-05T00:22:52.846Z,45.89
2023-05-05T00:23:56.497Z,45.78
2023-05-05T00:25:01.847Z,45.68
2023-05-05T00:26:05.455Z,45.65
2023-05-05T00:27:09.106Z,45.29
2023-05-05T00:28:12.785Z,45.06
2023-05-05T00:29:16.419Z,45.24
2023-05-05T00:30:20.024Z,44.76
2023-05-05T00:31:23.661Z,45.00
2023-05-05T00:32:27.297Z,44.60
2023-05-05T00:33:30.921Z,45.00
2023-05-05T00:34:34.548Z,44.77
2023-05-05T00:35:38.123Z,44.82
2023-05-05T00:36:41.692Z,45.04
2023-05-05T00:37:45.282Z,44.93
2023-05-05T00:38:48.931Z,45.37
2023-05-05T00:39:52.568Z,45.28
2023-05-05T00:40:57.776Z,44.85
2023-05-05T00:42:01.400Z,44.81
2023-05-05T00:43:05.021Z,44.69
2023-05-05T00:44:08.622Z,44.97
2023-05-05T00:45:13.445Z,45.11
2023-05-05T00:46:25.012Z,44.55
2023-05-05T00:47:28.816Z,44.39
2023-05-05T00:48:33.319Z,44.42
2023-05-05T00:49:37.886Z,44.61
2023-05-05T00:50:44.533Z,44.32
2023-05-05T00:51:48.161Z,44.05
2023-05-05T00:52:53.458Z,44.06
2023-05-05T00:53:57.198Z,44.06
2023-05-05T00:55:01.069Z,43.79
2023-05-05T00:56:06.912Z,43.93
2023-05-05T00:57:11.161Z,44.17
2023-05-05T00:58:14.897Z,44.57
2023-05-05T00:59:18.679Z,44.11
2023-05-05T01:00:22.446Z,44.45
2023-05-05T01:01:26.340Z,44.46
2023-05-05T01:02:30.082Z,44.45
2023-05-05T01:03:33.781Z,44.25
2023-05-05T01:04:37.402Z,44.71
2023-05-05T01:05:56.798Z,44.26
2023-05-05T01:07:14.547Z,43.62
2023-05-05T01:08:35.801Z,43.52
2023-05-05T01:09:46.824Z,43.72
2023-05-05T01:10:58.184Z,43.46
2023-05-05T01:12:12.884Z,42.90
2023-05-05T01:13:26.486Z,43.90
2023-05-05T01:14:37.643Z,43.60
2023-05-05T01:15:47.077Z,44.12
2023-05-05T01:16:59.915Z,43.28
2023-05-05T01:18:10.429Z,43.61
2023-05-05T01:19:30.648Z,43.71
2023-05-05T01:20:41.970Z,43.34
2023-05-05T01:21:50.511Z,43.33
2023-05-05T01:22:59.275Z,42.73
2023-05-05T01:24:27.229Z,42.57
2023-05-05T01:25:56.909Z,43.08
2023-05-05T01:27:28.778Z,42.89
2023-05-05T01:29:01.556Z,43.43
2023-05-05T01:30:21.534Z,43.15
2023-05-05T01:31:38.584Z,43.18
2023-05-05T01:32:45.999Z,43.57
2023-05-05T01:33:53.793Z,42.60
2023-05-05T01:35:02.201Z,43.31
2023-05-05T01:36:12.624Z,42.44
2023-05-05T01:37:22.870Z,42.73
2023-05-05T01:38:33.219Z,42.15
2023-05-05T01:39:38.131Z,42.45
2023-05-05T01:40:45.943Z,42.20
2023-05-05T01:41:52.071Z,42.84
2023-05-05T01:42:57.963Z,43.89
2023-05-05T01:44:05.626Z,42.83
2023-05-05T01:45:12.400Z,43.49
2023-05-05T01:46:16.983Z,42.70
2023-05-05T01:47:24.424Z,42.89
2023-05-05T01:48:28.158Z,42.45
2023-05-05T01:49:34.332Z,42.98
2023-05-05T01:50:38.528Z,42.65
2023-05-05T01:51:43.143Z,42.50
2023-05-05T01:52:48.152Z,41.66
2023-05-05T01:53:54.028Z,41.65
2023-05-05T01:54:59.448Z,41.65
2023-05-05T01:56:04.568Z,42.47
2023-05-05T01:57:09.365Z,42.06
2023-05-05T01:58:15.195Z,42.02
2023-05-05T01:59:21.042Z,41.86
2023-05-05T02:00:25.869Z,41.53
2023-05-05T02:01:30.950Z,41.84
2023-05-05T02:02:38.127Z,41.45
2023-05-05T02:03:43.359Z,41.61
2023-05-05T02:04:48.542Z,41.32
2023-05-05T02:05:53.975Z,40.77
2023-05-05T02:06:58.962Z,40.75
2023-05-05T02:08:05.278Z,40.79
2023-05-05T02:09:11.636Z,40.93
2023-05-05T02:10:16.048Z,41.12
2023-05-05T02:11:20.267Z,40.96
2023-05-05T02:12:24.193Z,41.21
2023-05-05T02:13:30.736Z,39.76
2023-05-05T02:14:36.505Z,40.46
2023-05-05T02:15:41.374Z,40.27
2023-05-05T02:16:45.919Z,40.82
2023-05-05T02:17:52.553Z,39.85
2023-05-05T02:18:57.859Z,40.73
2023-05-05T02:20:03.027Z,39.50
2023-05-05T02:21:07.850Z,41.05
2023-05-05T02:22:12.029Z,41.43
2023-05-05T02:23:15.846Z,41.45
2023-05-05T02:24:19.508Z,40.45
2023-05-05T02:25:23.445Z,40.96
2023-05-05T02:26:29.082Z,40.53
2023-05-05T02:27:36.056Z,39.96
2023-05-05T02:28:46.218Z,40.55
2023-05-05T02:29:51.498Z,40.13
2023-05-05T02:30:59.056Z,40.39
2023-05-05T02:32:06.314Z,40.25
2023-05-05T02:33:16.031Z,40.61
2023-05-05T02:34:28.141Z,38.98
2023-05-05T02:35:37.519Z,39.82
2023-05-05T02:36:42.979Z,39.76
2023-05-05T02:37:52.072Z,38.68
2023-05-05T02:38:59.940Z,40.14
2023-05-05T02:40:06.320Z,39.59
2023-05-05T02:41:14.373Z,40.63
2023-05-05T02:42:21.384Z,39.99
2023-05-05T02:43:26.701Z,39.61
2023-05-05T02:44:32.053Z,39.50
2023-05-05T02:45:35.722Z,39.28
2023-05-05T02:46:39.431Z,39.26
2023-05-05T02:47:43.168Z,39.16
2023-05-05T02:48:48.527Z,39.75
2023-05-05T02:49:52.669Z,40.02
2023-05-05T02:50:56.352Z,40.85
2023-05-05T02:52:00.155Z,40.62
2023-05-05T02:53:04.049Z,40.20
2023-05-05T02:54:08.084Z,39.43
2023-05-05T02:55:12.236Z,38.99
2023-05-05T02:56:24.895Z,38.86
2023-05-05T02:57:35.101Z,38.57
2023-05-05T02:58:47.467Z,38.82
2023-05-05T02:59:57.339Z,39.36
2023-05-05T03:01:12.052Z,38.48
2023-05-05T03:02:19.306Z,39.22
2023-05-05T03:03:29.102Z,37.91
2023-05-05T03:04:40.484Z,37.61
2023-05-05T03:05:50.057Z,37.90
2023-05-05T03:06:57.247Z,37.52
2023-05-05T03:08:04.953Z,37.24
2023-05-05T03:09:13.554Z,38.03
2023-05-05T03:10:21.858Z,37.34
2023-05-05T03:11:32.728Z,36.92
2023-05-05T03:12:40.659Z,37.47
2023-05-05T03:13:45.646Z,37.15
2023-05-05T03:14:52.517Z,37.63
2023-05-05T03:15:56.953Z,37.99
2023-05-05T03:17:02.143Z,37.39
2023-05-05T03:18:09.079Z,37.49
2023-05-05T03:19:14.386Z,37.93
2023-05-05T03:20:21.050Z,37.91
2023-05-05T03:21:24.925Z,37.75
2023-05-05T03:22:28.955Z,37.54
2023-05-05T03:23:33.756Z,37.38
2023-05-05T03:24:37.442Z,37.47
2023-05-05T03:25:45.101Z,36.07
2023-05-05T03:26:50.076Z,36.28
2023-05-05T03:27:53.668Z,36.69
2023-05-05T03:28:57.254Z,36.85
2023-05-05T03:30:00.926Z,36.14
2023-05-05T03:31:04.932Z,36.48
2023-05-05T03:32:09.427Z,36.21
2023-05-05T03:33:13.200Z,36.76
2023-05-05T03:34:16.751Z,37.35
2023-05-05T03:35:22.283Z,35.84
2023-05-05T03:36:27.893Z,36.42
2023-05-05T03:37:32.839Z,36.63
2023-05-05T03:38:36.399Z,36.14
2023-05-05T03:39:40.030Z,36.35
2023-05-05T03:40:44.796Z,36.12
2023-05-05T03:41:48.685Z,36.24
2023-05-05T03:42:52.390Z,35.89
2023-05-05T03:43:56.060Z,36.15
2023-05-05T03:44:59.677Z,35.88
2023-05-05T03:46:03.306Z,36.11
2023-05-05T03:47:07.328Z,36.63
2023-05-05T03:48:10.946Z,35.98
2023-05-05T03:49:14.566Z,36.94
2023-05-05T03:50:18.357Z,36.43
2023-05-05T03:51:23.983Z,36.25
2023-05-05T03:52:27.630Z,36.14
2023-05-05T03:53:31.952Z,36.46
2023-05-05T03:54:35.533Z,35.52
2023-05-05T03:55:39.162Z,36.08
2023-05-05T03:56:42.719Z,35.16
2023-05-05T03:57:46.287Z,35.63
2023-05-05T03:58:49.906Z,35.74
2023-05-05T03:59:53.561Z,36.64
2023-05-05T04:00:57.148Z,35.91
2023-05-05T04:02:00.834Z,34.77
2023-05-05T04:03:04.713Z,36.17
2023-05-05T04:04:08.613Z,35.75
2023-05-05T04:05:12.368Z,36.16
2023-05-05T04:06:16.066Z,35.48
2023-05-05T04:07:21.404Z,35.54
2023-05-05T04:08:24.962Z,35.68
2023-05-05T04:09:28.747Z,35.65
2023-05-05T04:10:32.481Z,36.27
2023-05-05T04:11:36.120Z,36.31
2023-05-05T04:12:39.747Z,34.75
2023-05-05T04:13:43.336Z,35.60
2023-05-05T04:14:46.939Z,35.79
2023-05-05T04:15:50.552Z,35.13
2023-05-05T04:16:54.576Z,34.62
2023-05-05T04:17:58.211Z,34.01
2023-05-05T04:19:01.846Z,34.54
2023-05-05T04:20:06.162Z,33.97
2023-05-05T04:21:09.880Z,35.05
2023-05-05T04:22:13.538Z,35.02
2023-05-05T04:23:18.803Z,35.24
2023-05-05T04:24:22.492Z,35.61
2023-05-05T04:25:26.062Z,35.38
2023-05-05T04:26:29.675Z,35.50
2023-05-05T04:27:33.328Z,35.47
2023-05-05T04:28:37.001Z,35.27
2023-05-05T04:29:40.675Z,35.64
2023-05-05T04:30:44.275Z,35.33
2023-05-05T04:31:47.938Z,34.76
2023-05-05T04:32:51.720Z,35.16
2023-05-05T04:33:55.354Z,33.98
2023-05-05T04:34:58.910Z,35.17
2023-05-05T04:36:02.659Z,34.76
2023-05-05T04:37:06.246Z,35.36
2023-05-05T04:38:09.896Z,34.12
2023-05-05T04:39:15.161Z,34.48
2023-05-05T04:40:19.092Z,33.54
2023-05-05T04:41:22.736Z,34.02
2023-05-05T04:42:26.309Z,33.94
2023-05-05T04:43:29.920Z,34.21
2023-05-05T04:44:34.423Z,33.77
2023-05-05T04:45:38.105Z,34.80
2023-05-05T04:46:41.988Z,34.85
2023-05-05T04:47:45.576Z,35.09
2023-05-05T04:48:49.256Z,35.24
2023-05-05T04:49:54.821Z,35.47
2023-05-05T04:50:58.396Z,35.87
2023-05-05T04:52:02.047Z,35.61
2023-05-05T04:53:05.650Z,34.79
2023-05-05T04:54:09.324Z,35.17
2023-05-05T04:55:14.714Z,35.62
2023-05-05T04:56:18.415Z,34.88
2023-05-05T04:57:22.037Z,34.33
2023-05-05T04:58:25.639Z,34.85
2023-05-05T04:59:29.213Z,35.17
2023-05-05T05:00:32.982Z,36.26
2023-05-05T05:01:38.418Z,35.49
2023-05-05T05:02:42.389Z,35.26
2023-05-05T05:03:46.086Z,35.44
2023-05-05T05:04:49.748Z,34.67
2023-05-05T05:05:53.420Z,34.81
2023-05-05T05:06:59.104Z,34.81
2023-05-05T05:08:02.938Z,35.34
2023-05-05T05:09:06.618Z,35.42
2023-05-05T05:10:11.139Z,34.82
2023-05-05T05:11:16.618Z,35.26
2023-05-05T05:12:20.364Z,35.28
2023-05-05T05:13:24.010Z,35.67
2023-05-05T05:14:27.639Z,34.59
2023-05-05T05:15:31.167Z,34.56
2023-05-05T05:16:34.814Z,34.39
2023-05-05T05:17:38.416Z,34.92
2023-05-05T05:18:42.174Z,35.47
2023-05-05T05:19:45.940Z,35.06
2023-05-05T05:20:49.534Z,35.74
2023-05-05T05:21:53.149Z,35.42
2023-05-05T05:22:56.802Z,35.86
2023-05-05T05:24:00.525Z,36.10
2023-05-05T05:25:04.224Z,35.63
2023-05-05T05:26:07.813Z,35.72
2023-05-05T05:27:12.968Z,35.54
2023-05-05T05:28:16.578Z,34.96
2023-05-05T05:29:20.174Z,35.42
2023-05-05T05:30:23.880Z,35.20
2023-05-05T05:31:27.454Z,34.92
2023-05-05T05:32:31.081Z,35.17
2023-05-05T05:33:34.736Z,35.31
2023-05-05T05:34:38.340Z,34.60
2023-05-05T05:35:41.898Z,33.88
2023-05-05T05:36:45.528Z,35.05
2023-05-05T05:37:50.138Z,35.17
2023-05-05T05:38:53.717Z,34.62
2023-05-05T05:39:57.430Z,34.71
2023-05-05T05:41:01.053Z,34.73
2023-05-05T05:42:04.684Z,34.79
2023-05-05T05:43:09.935Z,34.13
2023-05-05T05:44:13.501Z,34.73
2023-05-05T05:45:17.309Z,34.00
2023-05-05T05:46:20.996Z,34.30
2023-05-05T05:47:24.925Z,34.17
2023-05-05T05:48:28.591Z,34.04
2023-05-05T05:49:32.137Z,33.97
2023-05-05T05:50:35.805Z,34.14
2023-05-05T05:51:39.356Z,33.55
2023-05-05T05:52:42.910Z,32.73
2023-05-05T05:53:46.578Z,32.97
2023-05-05T05:54:50.354Z,32.86
2023-05-05T05:55:54.002Z,33.08
2023-05-05T05:56:57.650Z,33.26
2023-05-05T05:58:01.274Z,32.68
2023-05-05T05:59:06.497Z,32.96
2023-05-05T06:00:11.415Z,32.58
2023-05-05T06:01:15.094Z,32.77
2023-05-05T06:02:18.807Z,33.17
2023-05-05T06:03:22.548Z,33.13
2023-05-05T06:04:26.363Z,33.67
2023-05-05T06:05:29.950Z,34.11
2023-05-05T06:06:33.748Z,33.70
2023-05-05T06:07:37.317Z,33.39
2023-05-05T06:08:40.938Z,33.05
2023-05-05T06:09:44.653Z,33.09
2023-05-05T06:10:48.226Z,32.90
2023-05-05T06:11:51.821Z,33.13
2023-05-05T06:12:55.563Z,33.28
2023-05-05T06:13:59.214Z,32.88
2023-05-05T06:15:05.165Z,33.47
2023-05-05T06:16:09.556Z,33.25
2023-05-05T06:17:13.200Z,32.96
2023-05-05T06:18:16.838Z,32.47
2023-05-05T06:19:20.515Z,31.47
2023-05-05T06:20:24.246Z,33.10
2023-05-05T06:21:27.865Z,32.29
2023-05-05T06:22:31.440Z,32.60
2023-05-05T06:23:35.018Z,33.17
2023-05-05T06:24:38.617Z,32.86
2023-05-05T06:25:42.186Z,33.04
2023-05-05T06:26:45.730Z,32.51
2023-05-05T06:27:49.339Z,32.67
2023-05-05T06:28:52.902Z,32.56
2023-05-05T06:29:56.524Z,32.54
2023-05-05T06:31:01.838Z,32.14
2023-05-05T06:32:05.731Z,32.65
2023-05-05T06:33:09.425Z,31.81
2023-05-05T06:34:13.077Z,32.43
2023-05-05T06:35:16.852Z,32.56
2023-05-05T06:36:20.405Z,32.78
2023-05-05T06:37:24.111Z,32.82
2023-05-05T06:38:27.678Z,32.70
2023-05-05T06:39:31.276Z,33.14
2023-05-05T06:40:34.832Z,32.82
2023-05-05T06:41:38.458Z,32.21
2023-05-05T06:42:42.001Z,32.39
2023-05-05T06:43:45.704Z,32.04
2023-05-05T06:44:49.283Z,32.24
2023-05-05T06:45:52.869Z,31.92
2023-05-05T06:46:58.211Z,32.60
2023-05-05T06:48:01.801Z,31.65
2023-05-05T06:49:05.883Z,31.85
2023-05-05T06:50:10.459Z,32.35
2023-05-05T06:51:14.241Z,32.52
2023-05-05T06:52:17.804Z,32.31
2023-05-05T06:53:21.393Z,32.86
2023-05-05T06:54:25.037Z,32.66
2023-05-05T06:55:28.680Z,33.60
2023-05-05T06:56:32.723Z,33.13
2023-05-05T06:57:36.350Z,33.06
2023-05-05T06:58:39.975Z,32.85
2023-05-05T06:59:43.551Z,32.51
2023-05-05T07:00:47.144Z,33.36
2023-05-05T07:01:50.815Z,32.93
2023-05-05T07:02:56.134Z,33.07
2023-05-05T07:03:59.816Z,31.80
2023-05-05T07:05:03.445Z,32.47
2023-05-05T07:06:07.161Z,32.15
2023-05-05T07:07:10.826Z,32.37
2023-05-05T07:08:14.527Z,32.33
2023-05-05T07:09:18.048Z,31.84
2023-05-05T07:10:22.815Z,31.63
2023-05-05T07:11:26.354Z,32.02
2023-05-05T07:12:31.191Z,32.66
2023-05-05T07:13:34.838Z,31.94
2023-05-05T07:14:38.453Z,32.15
2023-05-05T07:15:42.754Z,32.05
2023-05-05T07:16:46.396Z,31.84
2023-05-05T07:17:50.087Z,31.65
2023-05-05T07:18:55.277Z,31.95
2023-05-05T07:19:58.845Z,31.95
2023-05-05T07:21:02.432Z,31.74
2023-05-05T07:22:06.066Z,31.36
2023-05-05T07:23:09.748Z,31.25
2023-05-05T07:24:13.421Z,31.10
2023-05-05T07:25:16.996Z,31.22
2023-05-05T07:26:20.697Z,31.23
2023-05-05T07:27:24.404Z,31.72
2023-05-05T07:28:28.122Z,31.88
2023-05-05T07:29:31.914Z,32.28
2023-05-05T07:30:35.539Z,31.75
2023-05-05T07:31:42.489Z,31.45
2023-05-05T07:32:46.339Z,31.92
2023-05-05T07:33:50.099Z,31.35
2023-05-05T07:34:55.390Z,31.32
2023-05-05T07:35:59.034Z,30.93
2023-05-05T07:37:02.751Z,31.52
2023-05-05T07:38:06.930Z,31.81
2023-05-05T07:39:11.773Z,31.57
2023-05-05T07:40:15.575Z,31.50
2023-05-05T07:41:19.735Z,31.74
2023-05-05T07:42:23.296Z,31.93
2023-05-05T07:43:26.873Z,31.88
2023-05-05T07:44:30.510Z,31.23
2023-05-05T07:45:34.650Z,30.85
2023-05-05T07:46:38.315Z,30.80
2023-05-05T07:47:42.000Z,31.17
2023-05-05T07:48:45.591Z,31.28
2023-05-05T07:49:49.116Z,31.04
2023-05-05T07:50:54.323Z,31.20
2023-05-05T07:51:57.902Z,30.78
2023-05-05T07:53:13.014Z,31.25
2023-05-05T07:54:18.464Z,30.95
2023-05-05T07:55:22.220Z,30.98
2023-05-05T07:56:25.982Z,30.61
2023-05-05T07:57:29.616Z,30.37
2023-05-05T07:58:33.264Z,30.64
2023-05-05T07:59:36.895Z,30.57
2023-05-05T08:00:40.686Z,30.45
2023-05-05T08:01:44.280Z,30.52
2023-05-05T08:02:48.976Z,30.10
2023-05-05T08:03:52.706Z,30.02
2023-05-05T08:04:56.355Z,30.91
2023-05-05T08:06:08.286Z,30.03
2023-05-05T08:07:12.255Z,29.47
2023-05-05T08:08:15.830Z,29.53
2023-05-05T08:09:19.436Z,30.47
2023-05-05T08:10:23.169Z,30.79
2023-05-05T08:11:29.008Z,30.63
2023-05-05T08:12:33.177Z,30.55
2023-05-05T08:13:36.813Z,30.70
2023-05-05T08:14:41.743Z,30.47
2023-05-05T08:15:45.429Z,31.28
2023-05-05T08:16:49.252Z,30.46
2023-05-05T08:17:54.041Z,30.64
2023-05-05T08:18:57.629Z,30.41
2023-05-05T08:20:01.297Z,31.12
2023-05-05T08:21:07.147Z,30.34
2023-05-05T08:22:10.823Z,30.28
2023-05-05T08:23:14.405Z,30.71
2023-05-05T08:24:18.145Z,30.13
2023-05-05T08:25:21.878Z,30.38
2023-05-05T08:26:25.594Z,30.13
2023-05-05T08:27:29.187Z,30.07
2023-05-05T08:28:32.759Z,30.38
2023-05-05T08:29:36.343Z,30.53
2023-05-05T08:30:39.993Z,30.19
2023-05-05T08:31:43.558Z,30.30
2023-05-05T08:32:47.201Z,29.88
2023-05-05T08:33:50.828Z,29.95
2023-05-05T08:34:54.419Z,30.01
2023-05-05T08:35:58.139Z,30.75
2023-05-05T08:37:03.343Z,30.74
2023-05-05T08:38:06.925Z,30.97
2023-05-05T08:39:10.485Z,30.81
2023-05-05T08:40:14.997Z,30.46
2023-05-05T08:41:19.536Z,30.59
2023-05-05T08:42:36.162Z,30.64
2023-05-05T08:43:41.291Z,30.25
2023-05-05T08:44:44.896Z,29.84
2023-05-05T08:45:49.747Z,30.42
2023-05-05T08:46:53.675Z,29.97
2023-05-05T08:47:58.486Z,29.75
2023-05-05T08:49:03.426Z,29.75
2023-05-05T08:50:10.729Z,30.34
2023-05-05T08:51:18.924Z,29.95
2023-05-05T08:52:25.240Z,29.51
2023-05-05T08:53:38.842Z,29.80
2023-05-05T08:54:51.166Z,29.79
2023-05-05T08:55:57.190Z,30.00
2023-05-05T08:57:03.393Z,29.99
2023-05-05T08:58:07.465Z,29.97
2023-05-05T08:59:12.618Z,29.93
2023-05-05T09:00:18.923Z,29.87
2023-05-05T09:01:22.806Z,30.01
2023-05-05T09:02:30.287Z,29.19
2023-05-05T09:03:35.040Z,29.58
2023-05-05T09:04:38.874Z,29.42
2023-05-05T09:05:44.291Z,29.58
2023-05-05T09:06:48.137Z,29.58
2023-05-05T09:07:53.354Z,29.27
2023-05-05T09:08:59.523Z,29.47
2023-05-05T09:10:04.925Z,28.87
2023-05-05T09:11:08.673Z,29.49
2023-05-05T09:12:12.288Z,28.86
2023-05-05T09:13:16.065Z,29.51
2023-05-05T09:14:19.772Z,29.27
2023-05-05T09:15:23.393Z,29.03
2023-05-05T09:16:27.364Z,28.91
2023-05-05T09:17:31.010Z,28.70
2023-05-05T09:18:37.616Z,28.68
2023-05-05T09:20:04.242Z,28.50
2023-05-05T09:21:20.935Z,28.60
2023-05-05T09:22:34.392Z,28.58
2023-05-05T09:23:39.604Z,28.80
2023-05-05T09:24:56.075Z,28.89
2023-05-05T09:26:06.608Z,29.05
2023-05-05T09:27:23.138Z,29.35
2023-05-05T09:28:27.392Z,30.16
2023-05-05T09:29:31.066Z,29.15
2023-05-05T09:30:35.543Z,29.15
2023-05-05T09:31:39.164Z,29.20
2023-05-05T09:32:50.372Z,28.48
2023-05-05T09:33:54.183Z,29.26
2023-05-05T09:35:01.417Z,29.27
2023-05-05T09:36:05.510Z,29.36
2023-05-05T09:37:09.088Z,29.61
2023-05-05T09:38:13.020Z,29.41
2023-05-05T09:39:19.724Z,29.63
2023-05-05T09:40:23.259Z,29.72
2023-05-05T09:41:39.090Z,29.46
2023-05-05T09:42:42.961Z,29.11
2023-05-05T09:43:52.297Z,28.51
2023-05-05T09:44:57.384Z,29.53
2023-05-05T09:46:09.099Z,29.23
2023-05-05T09:47:22.361Z,29.11
2023-05-05T09:48:33.267Z,28.83
2023-05-05T09:49:39.707Z,28.96
2023-05-05T09:50:44.588Z,28.34
2023-05-05T09:51:48.916Z,28.97
2023-05-05T09:52:59.472Z,29.24
2023-05-05T09:54:03.174Z,28.92
2023-05-05T09:55:17.684Z,28.45
2023-05-05T09:56:21.311Z,29.32
2023-05-05T09:57:29.937Z,28.93
2023-05-05T09:58:33.657Z,29.03
2023-05-05T09:59:37.446Z,29.37
2023-05-05T10:00:41.178Z,29.51
2023-05-05T10:01:44.817Z,28.95
2023-05-05T10:02:48.663Z,29.11
2023-05-05T10:03:52.540Z,28.92
2023-05-05T10:05:06.823Z,29.09
2023-05-05T10:06:10.485Z,29.39
2023-05-05T10:07:24.172Z,29.26
2023-05-05T10:08:29.881Z,29.37
2023-05-05T10:09:33.505Z,29.35
2023-05-05T10:10:45.036Z,29.15
2023-05-05T10:11:48.756Z,29.02
2023-05-05T10:12:52.772Z,29.26
2023-05-05T10:13:56.894Z,29.66
2023-05-05T10:15:02.986Z,29.92
2023-05-05T10:16:09.504Z,30.59
2023-05-05T10:17:20.669Z,29.91
